sensor_id;sensor_type;location;lat;lon;timestamp;pressure;altitude;pressure_sealevel;temperature;humidity
66396;BME280;53207;51.378;-1.342;2023-02-10T00:00:47;102270.83;;;17.82;33.21
66396;BME280;53207;51.378;-1.342;2023-02-10T00:03:14;102284.29;;;18.28;33.23
66396;BME280;53207;51.378;-1.342;2023-02-10T00:05:42;102284.15;;;17.82;33.22
66396;BME280;53207;51.378;-1.342;2023-02-10T00:08:09;102279.20;;;18.20;33.32
66396;BME280;53207;51.378;-1.342;2023-02-10T00:10:36;102279.44;;;17.51;33.54
66396;BME280;53207;51.378;-1.342;2023-02-10T00:13:03;102277.77;;;17.45;33.63
66396;BME280;53207;51.378;-1.342;2023-02-10T00:15:31;102273.63;;;18.17;33.34
66396;BME280;53207;51.378;-1.342;2023-02-10T00:17:58;102273.48;;;17.57;33.43
66396;BME280;53207;51.378;-1.342;2023-02-10T00:20:25;102274.69;;;17.65;33.33
66396;BME280;53207;51.378;-1.342;2023-02-10T00:22:52;102274.07;;;17.54;33.48
66396;BME280;53207;51.378;-1.342;2023-02-10T00:25:19;102277.68;;;18.05;33.40
66396;BME280;53207;51.378;-1.342;2023-02-10T00:27:47;102280.59;;;17.49;33.49
66396;BME280;53207;51.378;-1.342;2023-02-10T00:30:14;102279.03;;;17.91;33.57
66396;BME280;53207;51.378;-1.342;2023-02-10T00:32:41;102280.56;;;17.99;33.45
66396;BME280;53207;51.378;-1.342;2023-02-10T00:35:09;102283.58;;;17.82;33.36
66396;BME280;53207;51.378;-1.342;2023-02-10T00:37:36;102291.68;;;17.68;33.53
66396;BME280;53207;51.378;-1.342;2023-02-10T00:40:04;102297.25;;;18.02;33.36
66396;BME280;53207;51.378;-1.342;2023-02-10T00:42:31;102287.89;;;17.90;33.21
66396;BME280;53207;51.378;-1.342;2023-02-10T00:44:59;102280.51;;;17.76;33.36
66396;BME280;53207;51.378;-1.342;2023-02-10T00:47:27;102279.07;;;17.29;33.59
66396;BME280;53207;51.378;-1.342;2023-02-10T00:49:54;102280.33;;;17.74;33.35
66396;BME280;53207;51.378;-1.342;2023-02-10T00:52:22;102278.71;;;17.33;33.51
66396;BME280;53207;51.378;-1.342;2023-02-10T00:54:50;102272.02;;;17.41;33.37
66396;BME280;53207;51.378;-1.342;2023-02-10T00:57:17;102269.53;;;17.35;33.44
66396;BME280;53207;51.378;-1.342;2023-02-10T00:59:44;102271.23;;;17.65;33.37
66396;BME280;53207;51.378;-1.342;2023-02-10T01:02:12;102269.27;;;17.50;33.23
66396;BME280;53207;51.378;-1.342;2023-02-10T01:04:39;102267.34;;;17.27;33.47
66396;BME280;53207;51.378;-1.342;2023-02-10T01:07:06;102266.13;;;17.41;33.27
66396;BME280;53207;51.378;-1.342;2023-02-10T01:09:34;102270.03;;;17.69;33.25
66396;BME280;53207;51.378;-1.342;2023-02-10T01:12:01;102271.39;;;17.25;33.43
66396;BME280;53207;51.378;-1.342;2023-02-10T01:14:29;102264.88;;;17.46;33.18
66396;BME280;53207;51.378;-1.342;2023-02-10T01:16:56;102259.70;;;17.32;33.28
66396;BME280;53207;51.378;-1.342;2023-02-10T01:19:24;102267.95;;;17.26;33.36
66396;BME280;53207;51.378;-1.342;2023-02-10T01:21:51;102276.86;;;17.54;33.30
66396;BME280;53207;51.378;-1.342;2023-02-10T01:24:18;102281.31;;;17.64;33.17
66396;BME280;53207;51.378;-1.342;2023-02-10T01:26:46;102282.78;;;17.73;33.04
66396;BME280;53207;51.378;-1.342;2023-02-10T01:29:13;102281.03;;;17.26;33.25
66396;BME280;53207;51.378;-1.342;2023-02-10T01:31:40;102276.19;;;17.74;33.25
66396;BME280;53207;51.378;-1.342;2023-02-10T01:34:08;102272.61;;;17.37;33.39
66396;BME280;53207;51.378;-1.342;2023-02-10T01:36:35;102270.80;;;17.27;33.17
66396;BME280;53207;51.378;-1.342;2023-02-10T01:39:02;102271.45;;;17.37;33.37
66396;BME280;53207;51.378;-1.342;2023-02-10T01:41:29;102271.35;;;17.40;33.28
66396;BME280;53207;51.378;-1.342;2023-02-10T01:44:00;102266.53;;;17.62;33.25
66396;BME280;53207;51.378;-1.342;2023-02-10T01:46:29;102263.13;;;17.69;33.14
66396;BME280;53207;51.378;-1.342;2023-02-10T01:49:00;102262.60;;;17.39;33.23
66396;BME280;53207;51.378;-1.342;2023-02-10T01:51:36;102263.54;;;17.49;33.34
66396;BME280;53207;51.378;-1.342;2023-02-10T01:54:04;102265.54;;;17.25;33.34
66396;BME280;53207;51.378;-1.342;2023-02-10T01:56:32;102268.32;;;17.47;33.32
66396;BME280;53207;51.378;-1.342;2023-02-10T01:58:59;102272.89;;;17.41;33.09
66396;BME280;53207;51.378;-1.342;2023-02-10T02:01:27;102272.83;;;17.30;33.20
66396;BME280;53207;51.378;-1.342;2023-02-10T02:03:54;102271.92;;;17.47;32.99
66396;BME280;53207;51.378;-1.342;2023-02-10T02:06:22;102271.29;;;17.56;33.11
66396;BME280;53207;51.378;-1.342;2023-02-10T02:08:50;102275.59;;;17.33;33.09
66396;BME280;53207;51.378;-1.342;2023-02-10T02:11:21;102275.46;;;17.26;33.12
66396;BME280;53207;51.378;-1.342;2023-02-10T02:14:08;102273.39;;;17.44;33.16
66396;BME280;53207;51.378;-1.342;2023-02-10T02:16:44;102271.04;;;17.30;33.05
66396;BME280;53207;51.378;-1.342;2023-02-10T02:20:08;102268.85;;;17.26;33.06
66396;BME280;53207;51.378;-1.342;2023-02-10T02:23:02;102263.82;;;17.25;33.04
66396;BME280;53207;51.378;-1.342;2023-02-10T02:25:41;102269.10;;;16.99;33.00
66396;BME280;53207;51.378;-1.342;2023-02-10T02:28:24;102271.50;;;16.88;33.09
66396;BME280;53207;51.378;-1.342;2023-02-10T02:31:06;102271.19;;;17.54;32.88
66396;BME280;53207;51.378;-1.342;2023-02-10T02:33:40;102271.98;;;17.13;33.06
66396;BME280;53207;51.378;-1.342;2023-02-10T02:36:13;102273.69;;;17.34;33.05
66396;BME280;53207;51.378;-1.342;2023-02-10T02:38:44;102270.59;;;17.32;33.07
66396;BME280;53207;51.378;-1.342;2023-02-10T02:41:11;102267.32;;;17.31;33.03
66396;BME280;53207;51.378;-1.342;2023-02-10T02:43:40;102262.38;;;17.04;33.07
66396;BME280;53207;51.378;-1.342;2023-02-10T02:46:11;102261.75;;;17.30;33.00
66396;BME280;53207;51.378;-1.342;2023-02-10T02:48:49;102264.82;;;17.23;33.09
66396;BME280;53207;51.378;-1.342;2023-02-10T02:51:30;102260.98;;;17.40;33.10
66396;BME280;53207;51.378;-1.342;2023-02-10T02:54:10;102257.96;;;16.90;33.14
66396;BME280;53207;51.378;-1.342;2023-02-10T02:56:43;102256.31;;;16.95;33.04
66396;BME280;53207;51.378;-1.342;2023-02-10T02:59:20;102258.62;;;17.19;33.02
66396;BME280;53207;51.378;-1.342;2023-02-10T03:01:51;102262.62;;;17.11;33.09
66396;BME280;53207;51.378;-1.342;2023-02-10T03:04:20;102262.01;;;17.05;33.12
66396;BME280;53207;51.378;-1.342;2023-02-10T03:06:47;102262.75;;;17.00;33.19
66396;BME280;53207;51.378;-1.342;2023-02-10T03:09:14;102265.05;;;17.03;33.10
66396;BME280;53207;51.378;-1.342;2023-02-10T03:11:42;102268.93;;;17.08;33.02
66396;BME280;53207;51.378;-1.342;2023-02-10T03:14:09;102264.08;;;17.06;33.04
66396;BME280;53207;51.378;-1.342;2023-02-10T03:16:36;102258.82;;;16.88;33.19
66396;BME280;53207;51.378;-1.342;2023-02-10T03:19:04;102252.44;;;16.86;33.21
66396;BME280;53207;51.378;-1.342;2023-02-10T03:21:31;102248.43;;;16.93;33.08
66396;BME280;53207;51.378;-1.342;2023-02-10T03:23:59;102249.70;;;17.11;33.12
66396;BME280;53207;51.378;-1.342;2023-02-10T03:26:26;102251.19;;;16.92;33.07
66396;BME280;53207;51.378;-1.342;2023-02-10T03:28:54;102251.67;;;16.81;33.17
66396;BME280;53207;51.378;-1.342;2023-02-10T03:31:21;102252.79;;;17.20;32.96
66396;BME280;53207;51.378;-1.342;2023-02-10T03:33:49;102252.82;;;16.81;33.10
66396;BME280;53207;51.378;-1.342;2023-02-10T03:36:16;102247.62;;;17.04;33.08
66396;BME280;53207;51.378;-1.342;2023-02-10T03:38:43;102243.87;;;16.82;33.07
66396;BME280;53207;51.378;-1.342;2023-02-10T03:41:11;102241.58;;;16.68;33.20
66396;BME280;53207;51.378;-1.342;2023-02-10T03:43:38;102236.38;;;16.65;33.22
66396;BME280;53207;51.378;-1.342;2023-02-10T03:46:05;102229.39;;;16.74;33.10
66396;BME280;53207;51.378;-1.342;2023-02-10T03:48:33;102226.79;;;16.66;33.17
66396;BME280;53207;51.378;-1.342;2023-02-10T03:51:02;102224.41;;;16.47;33.38
66396;BME280;53207;51.378;-1.342;2023-02-10T03:53:31;102216.79;;;16.74;33.04
66396;BME280;53207;51.378;-1.342;2023-02-10T03:55:58;102218.03;;;16.58;33.17
66396;BME280;53207;51.378;-1.342;2023-02-10T03:58:26;102214.24;;;16.45;33.31
66396;BME280;53207;51.378;-1.342;2023-02-10T04:00:53;102212.06;;;16.79;33.16
66396;BME280;53207;51.378;-1.342;2023-02-10T04:03:21;102206.42;;;16.56;33.14
66396;BME280;53207;51.378;-1.342;2023-02-10T04:05:48;102203.49;;;16.48;33.19
66396;BME280;53207;51.378;-1.342;2023-02-10T04:08:16;102208.74;;;16.73;33.15
66396;BME280;53207;51.378;-1.342;2023-02-10T04:10:43;102214.98;;;16.50;33.12
66396;BME280;53207;51.378;-1.342;2023-02-10T04:13:10;102216.72;;;16.53;33.09
66396;BME280;53207;51.378;-1.342;2023-02-10T04:15:37;102219.29;;;16.45;33.15
66396;BME280;53207;51.378;-1.342;2023-02-10T04:18:05;102229.89;;;16.41;33.16
66396;BME280;53207;51.378;-1.342;2023-02-10T04:20:32;102230.79;;;16.66;33.11
66396;BME280;53207;51.378;-1.342;2023-02-10T04:23:00;102232.15;;;16.42;33.11
66396;BME280;53207;51.378;-1.342;2023-02-10T04:25:27;102231.70;;;16.59;33.14
66396;BME280;53207;51.378;-1.342;2023-02-10T04:27:54;102227.92;;;16.36;33.17
66396;BME280;53207;51.378;-1.342;2023-02-10T04:30:22;102223.40;;;16.26;33.23
66396;BME280;53207;51.378;-1.342;2023-02-10T04:32:49;102225.64;;;16.27;33.21
66396;BME280;53207;51.378;-1.342;2023-02-10T04:35:16;102234.83;;;16.43;33.27
66396;BME280;53207;51.378;-1.342;2023-02-10T04:37:44;102242.75;;;16.58;33.06
66396;BME280;53207;51.378;-1.342;2023-02-10T04:40:11;102244.88;;;16.73;33.16
66396;BME280;53207;51.378;-1.342;2023-02-10T04:42:39;102243.30;;;16.72;33.17
66396;BME280;53207;51.378;-1.342;2023-02-10T04:45:07;102237.65;;;16.40;33.21
66396;BME280;53207;51.378;-1.342;2023-02-10T04:47:34;102235.82;;;16.30;33.31
66396;BME280;53207;51.378;-1.342;2023-02-10T04:50:01;102235.18;;;16.21;33.40
66396;BME280;53207;51.378;-1.342;2023-02-10T04:52:29;102239.46;;;16.21;33.39
66396;BME280;53207;51.378;-1.342;2023-02-10T04:54:56;102235.62;;;16.18;33.42
66396;BME280;53207;51.378;-1.342;2023-02-10T04:57:23;102234.33;;;16.48;33.40
66396;BME280;53207;51.378;-1.342;2023-02-10T04:59:51;102234.56;;;16.48;33.36
66396;BME280;53207;51.378;-1.342;2023-02-10T05:02:18;102234.67;;;15.94;33.69
66396;BME280;53207;51.378;-1.342;2023-02-10T05:04:46;102224.25;;;16.14;33.42
66396;BME280;53207;51.378;-1.342;2023-02-10T05:07:13;102217.02;;;15.97;33.62
66396;BME280;53207;51.378;-1.342;2023-02-10T05:09:40;102214.86;;;16.20;33.66
66396;BME280;53207;51.378;-1.342;2023-02-10T05:12:08;102216.47;;;16.30;33.53
66396;BME280;53207;51.378;-1.342;2023-02-10T05:14:35;102218.62;;;16.34;33.47
66396;BME280;53207;51.378;-1.342;2023-02-10T05:17:02;102222.44;;;15.93;33.63
66396;BME280;53207;51.378;-1.342;2023-02-10T05:19:30;102215.95;;;16.38;33.38
66396;BME280;53207;51.378;-1.342;2023-02-10T05:21:57;102220.94;;;15.89;33.60
66396;BME280;53207;51.378;-1.342;2023-02-10T05:24:25;102215.74;;;16.22;33.55
66396;BME280;53207;51.378;-1.342;2023-02-10T05:26:52;102218.41;;;16.06;33.38
66396;BME280;53207;51.378;-1.342;2023-02-10T05:29:19;102215.32;;;16.21;33.52
66396;BME280;53207;51.378;-1.342;2023-02-10T05:31:46;102213.26;;;16.06;33.34
66396;BME280;53207;51.378;-1.342;2023-02-10T05:34:14;102209.23;;;15.95;33.49
66396;BME280;53207;51.378;-1.342;2023-02-10T05:36:41;102209.80;;;15.97;33.43
66396;BME280;53207;51.378;-1.342;2023-02-10T05:39:08;102219.42;;;15.87;33.56
66396;BME280;53207;51.378;-1.342;2023-02-10T05:41:36;102219.31;;;16.00;33.40
66396;BME280;53207;51.378;-1.342;2023-02-10T05:44:03;102219.93;;;15.87;33.56
66396;BME280;53207;51.378;-1.342;2023-02-10T05:46:30;102217.13;;;16.07;33.31
66396;BME280;53207;51.378;-1.342;2023-02-10T05:48:58;102221.14;;;16.12;33.57
66396;BME280;53207;51.378;-1.342;2023-02-10T05:51:25;102218.56;;;15.94;33.48
66396;BME280;53207;51.378;-1.342;2023-02-10T05:53:52;102220.97;;;16.27;33.38
66396;BME280;53207;51.378;-1.342;2023-02-10T05:56:20;102225.10;;;15.94;33.46
66396;BME280;53207;51.378;-1.342;2023-02-10T05:58:47;102230.75;;;15.49;33.75
66396;BME280;53207;51.378;-1.342;2023-02-10T06:01:15;102238.36;;;16.23;33.42
66396;BME280;53207;51.378;-1.342;2023-02-10T06:03:43;102241.45;;;16.20;33.47
66396;BME280;53207;51.378;-1.342;2023-02-10T06:06:10;102244.41;;;16.25;33.37
66396;BME280;53207;51.378;-1.342;2023-02-10T06:08:37;102245.69;;;16.17;33.48
66396;BME280;53207;51.378;-1.342;2023-02-10T06:11:05;102242.58;;;15.65;33.50
66396;BME280;53207;51.378;-1.342;2023-02-10T06:13:32;102242.35;;;16.05;33.57
66396;BME280;53207;51.378;-1.342;2023-02-10T06:15:59;102243.64;;;15.87;33.50
66396;BME280;53207;51.378;-1.342;2023-02-10T06:18:27;102247.30;;;15.63;33.76
66396;BME280;53207;51.378;-1.342;2023-02-10T06:20:54;102256.64;;;16.15;33.45
66396;BME280;53207;51.378;-1.342;2023-02-10T06:23:22;102247.60;;;15.94;33.67
66396;BME280;53207;51.378;-1.342;2023-02-10T06:25:49;102240.38;;;15.75;33.57
66396;BME280;53207;51.378;-1.342;2023-02-10T06:28:17;102237.26;;;15.81;33.48
66396;BME280;53207;51.378;-1.342;2023-02-10T06:30:44;102240.74;;;15.71;33.58
66396;BME280;53207;51.378;-1.342;2023-02-10T06:33:12;102238.81;;;15.97;33.59
66396;BME280;53207;51.378;-1.342;2023-02-10T06:35:40;102236.17;;;16.04;33.53
66396;BME280;53207;51.378;-1.342;2023-02-10T06:38:07;102237.66;;;16.16;33.40
66396;BME280;53207;51.378;-1.342;2023-02-10T06:40:35;102239.23;;;16.20;33.51
66396;BME280;53207;51.378;-1.342;2023-02-10T06:43:02;102235.42;;;15.95;33.59
66396;BME280;53207;51.378;-1.342;2023-02-10T06:45:30;102226.49;;;16.42;33.41
66396;BME280;53207;51.378;-1.342;2023-02-10T06:47:57;102225.87;;;16.18;33.44
66396;BME280;53207;51.378;-1.342;2023-02-10T06:50:24;102227.11;;;16.30;33.42
66396;BME280;53207;51.378;-1.342;2023-02-10T06:52:52;102226.26;;;16.23;33.34
66396;BME280;53207;51.378;-1.342;2023-02-10T06:55:19;102231.40;;;16.59;33.30
66396;BME280;53207;51.378;-1.342;2023-02-10T06:57:47;102232.40;;;16.45;33.30
66396;BME280;53207;51.378;-1.342;2023-02-10T07:00:15;102236.01;;;16.76;33.28
66396;BME280;53207;51.378;-1.342;2023-02-10T07:02:42;102234.96;;;16.94;33.15
66396;BME280;53207;51.378;-1.342;2023-02-10T07:05:11;102237.71;;;16.81;33.12
66396;BME280;53207;51.378;-1.342;2023-02-10T07:07:38;102240.40;;;17.11;33.10
66396;BME280;53207;51.378;-1.342;2023-02-10T07:10:06;102243.81;;;17.17;33.08
66396;BME280;53207;51.378;-1.342;2023-02-10T07:12:33;102250.00;;;17.28;33.06
66396;BME280;53207;51.378;-1.342;2023-02-10T07:15:01;102252.42;;;17.30;33.09
66396;BME280;53207;51.378;-1.342;2023-02-10T07:17:28;102256.03;;;17.40;33.04
66396;BME280;53207;51.378;-1.342;2023-02-10T07:19:56;102259.38;;;17.23;33.00
66396;BME280;53207;51.378;-1.342;2023-02-10T07:22:23;102259.35;;;17.29;32.97
66396;BME280;53207;51.378;-1.342;2023-02-10T07:24:50;102260.56;;;17.33;32.95
66396;BME280;53207;51.378;-1.342;2023-02-10T07:27:18;102259.40;;;17.59;32.92
66396;BME280;53207;51.378;-1.342;2023-02-10T07:29:45;102263.25;;;17.41;32.82
66396;BME280;53207;51.378;-1.342;2023-02-10T07:32:12;102265.02;;;17.46;32.76
66396;BME280;53207;51.378;-1.342;2023-02-10T07:34:40;102266.97;;;17.49;32.71
66396;BME280;53207;51.378;-1.342;2023-02-10T07:37:07;102270.07;;;17.49;32.72
66396;BME280;53207;51.378;-1.342;2023-02-10T07:39:35;102270.84;;;17.49;32.71
66396;BME280;53207;51.378;-1.342;2023-02-10T07:42:03;102274.43;;;17.44;32.74
66396;BME280;53207;51.378;-1.342;2023-02-10T07:44:30;102275.86;;;17.49;32.72
66396;BME280;53207;51.378;-1.342;2023-02-10T07:46:57;102271.04;;;17.49;32.68
66396;BME280;53207;51.378;-1.342;2023-02-10T07:49:25;102269.43;;;17.46;32.68
66396;BME280;53207;51.378;-1.342;2023-02-10T07:51:52;102270.73;;;17.34;32.83
66396;BME280;53207;51.378;-1.342;2023-02-10T07:54:19;102276.09;;;17.37;32.78
66396;BME280;53207;51.378;-1.342;2023-02-10T07:56:47;102281.68;;;17.12;32.80
66396;BME280;53207;51.378;-1.342;2023-02-10T07:59:14;102284.42;;;17.32;32.81
66396;BME280;53207;51.378;-1.342;2023-02-10T08:01:42;102286.22;;;17.27;32.86
66396;BME280;53207;51.378;-1.342;2023-02-10T08:04:09;102284.28;;;17.26;32.86
66396;BME280;53207;51.378;-1.342;2023-02-10T08:06:36;102283.35;;;17.25;32.86
66396;BME280;53207;51.378;-1.342;2023-02-10T08:09:04;102279.79;;;17.38;32.95
66396;BME280;53207;51.378;-1.342;2023-02-10T08:11:31;102280.66;;;17.01;33.12
66396;BME280;53207;51.378;-1.342;2023-02-10T08:14:01;102281.52;;;17.06;33.07
66396;BME280;53207;51.378;-1.342;2023-02-10T08:16:28;102276.13;;;16.96;33.16
66396;BME280;53207;51.378;-1.342;2023-02-10T08:18:55;102279.81;;;16.73;33.18
66396;BME280;53207;51.378;-1.342;2023-02-10T08:21:23;102284.79;;;17.05;33.07
66396;BME280;53207;51.378;-1.342;2023-02-10T08:23:50;102287.46;;;16.80;33.13
66396;BME280;53207;51.378;-1.342;2023-02-10T08:26:18;102289.77;;;17.09;33.03
66396;BME280;53207;51.378;-1.342;2023-02-10T08:28:45;102293.53;;;17.35;32.76
66396;BME280;53207;51.378;-1.342;2023-02-10T08:31:12;102295.01;;;17.41;32.69
66396;BME280;53207;51.378;-1.342;2023-02-10T08:33:40;102298.23;;;17.23;32.64
66396;BME280;53207;51.378;-1.342;2023-02-10T08:36:09;102301.74;;;17.46;32.64
66396;BME280;53207;51.378;-1.342;2023-02-10T08:38:36;102304.41;;;17.48;32.68
66396;BME280;53207;51.378;-1.342;2023-02-10T08:41:04;102308.18;;;17.33;32.62
66396;BME280;53207;51.378;-1.342;2023-02-10T08:43:32;102308.25;;;17.60;32.62
66396;BME280;53207;51.378;-1.342;2023-02-10T08:46:01;102305.49;;;17.39;32.63
66396;BME280;53207;51.378;-1.342;2023-02-10T08:48:29;102305.74;;;17.65;32.68
66396;BME280;53207;51.378;-1.342;2023-02-10T08:50:58;102305.12;;;17.39;32.73
66396;BME280;53207;51.378;-1.342;2023-02-10T08:53:26;102307.72;;;17.61;32.79
66396;BME280;53207;51.378;-1.342;2023-02-10T08:55:56;102315.37;;;17.65;33.32
66396;BME280;53207;51.378;-1.342;2023-02-10T08:58:23;102317.92;;;17.57;32.89
66396;BME280;53207;51.378;-1.342;2023-02-10T09:00:51;102316.00;;;17.57;33.02
66396;BME280;53207;51.378;-1.342;2023-02-10T09:03:18;102323.74;;;17.71;33.20
66396;BME280;53207;51.378;-1.342;2023-02-10T09:05:46;102322.75;;;17.72;33.23
66396;BME280;53207;51.378;-1.342;2023-02-10T09:08:14;102327.69;;;17.45;33.27
66396;BME280;53207;51.378;-1.342;2023-02-10T09:10:41;102331.49;;;17.64;33.38
66396;BME280;53207;51.378;-1.342;2023-02-10T09:13:08;102334.10;;;17.18;33.71
66396;BME280;53207;51.378;-1.342;2023-02-10T09:15:37;102343.75;;;17.15;33.76
66396;BME280;53207;51.378;-1.342;2023-02-10T09:18:05;102350.66;;;17.28;33.61
66396;BME280;53207;51.378;-1.342;2023-02-10T09:20:32;102349.54;;;16.84;33.81
66396;BME280;53207;51.378;-1.342;2023-02-10T09:23:00;102343.18;;;17.48;33.60
66396;BME280;53207;51.378;-1.342;2023-02-10T09:25:28;102343.87;;;17.45;33.57
66396;BME280;53207;51.378;-1.342;2023-02-10T09:27:55;102345.85;;;17.30;33.46
66396;BME280;53207;51.378;-1.342;2023-02-10T09:30:22;102346.71;;;16.97;33.51
66396;BME280;53207;51.378;-1.342;2023-02-10T09:32:49;102346.06;;;17.35;33.36
66396;BME280;53207;51.378;-1.342;2023-02-10T09:35:17;102344.83;;;17.43;33.51
66396;BME280;53207;51.378;-1.342;2023-02-10T09:37:44;102339.80;;;17.09;33.60
66396;BME280;53207;51.378;-1.342;2023-02-10T09:40:16;102346.67;;;16.74;33.72
66396;BME280;53207;51.378;-1.342;2023-02-10T09:43:00;102349.97;;;17.41;33.46
66396;BME280;53207;51.378;-1.342;2023-02-10T09:45:34;102352.63;;;17.01;33.63
66396;BME280;53207;51.378;-1.342;2023-02-10T09:48:14;102350.40;;;16.91;33.77
66396;BME280;53207;51.378;-1.342;2023-02-10T09:50:50;102352.63;;;16.81;33.51
66396;BME280;53207;51.378;-1.342;2023-02-10T09:53:23;102354.33;;;17.32;33.45
66396;BME280;53207;51.378;-1.342;2023-02-10T09:55:55;102351.36;;;16.68;33.92
66396;BME280;53207;51.378;-1.342;2023-02-10T09:58:28;102343.60;;;17.02;33.77
66396;BME280;53207;51.378;-1.342;2023-02-10T10:01:01;102344.98;;;16.79;33.73
66396;BME280;53207;51.378;-1.342;2023-02-10T10:03:37;102344.84;;;16.83;33.94
66396;BME280;53207;51.378;-1.342;2023-02-10T10:06:14;102340.17;;;16.97;33.71
66396;BME280;53207;51.378;-1.342;2023-02-10T10:08:49;102339.09;;;17.01;33.60
66396;BME280;53207;51.378;-1.342;2023-02-10T10:11:25;102341.55;;;16.74;33.66
66396;BME280;53207;51.378;-1.342;2023-02-10T10:13:54;102337.11;;;16.97;33.60
66396;BME280;53207;51.378;-1.342;2023-02-10T10:16:41;102331.28;;;16.95;33.60
66396;BME280;53207;51.378;-1.342;2023-02-10T10:19:18;102326.95;;;16.87;33.66
66396;BME280;53207;51.378;-1.342;2023-02-10T10:21:54;102323.62;;;16.98;33.49
66396;BME280;53207;51.378;-1.342;2023-02-10T10:24:39;102328.93;;;17.07;33.39
66396;BME280;53207;51.378;-1.342;2023-02-10T10:27:19;102330.76;;;16.98;33.44
66396;BME280;53207;51.378;-1.342;2023-02-10T10:29:53;102331.75;;;16.71;33.48
66396;BME280;53207;51.378;-1.342;2023-02-10T10:32:35;102335.08;;;17.04;33.33
66396;BME280;53207;51.378;-1.342;2023-02-10T10:35:13;102339.53;;;16.79;33.62
66396;BME280;53207;51.378;-1.342;2023-02-10T10:37:42;102338.29;;;16.97;33.38
66396;BME280;53207;51.378;-1.342;2023-02-10T10:40:16;102334.44;;;16.89;33.47
66396;BME280;53207;51.378;-1.342;2023-02-10T10:42:46;102329.91;;;16.86;33.51
66396;BME280;53207;51.378;-1.342;2023-02-10T10:45:16;102322.57;;;17.12;33.41
66396;BME280;53207;51.378;-1.342;2023-02-10T10:47:48;102322.66;;;16.92;33.37
66396;BME280;53207;51.378;-1.342;2023-02-10T10:50:19;102325.14;;;16.87;33.43
66396;BME280;53207;51.378;-1.342;2023-02-10T10:52:50;102325.40;;;16.80;33.50
66396;BME280;53207;51.378;-1.342;2023-02-10T10:55:22;102329.54;;;16.86;33.42
66396;BME280;53207;51.378;-1.342;2023-02-10T10:57:52;102325.11;;;16.85;33.40
66396;BME280;53207;51.378;-1.342;2023-02-10T11:00:24;102329.77;;;16.72;33.54
66396;BME280;53207;51.378;-1.342;2023-02-10T11:02:54;102324.44;;;16.83;33.35
66396;BME280;53207;51.378;-1.342;2023-02-10T11:05:21;102321.13;;;16.91;33.49
66396;BME280;53207;51.378;-1.342;2023-02-10T11:07:50;102319.10;;;16.79;33.35
66396;BME280;53207;51.378;-1.342;2023-02-10T11:10:22;102321.87;;;16.94;33.40
66396;BME280;53207;51.378;-1.342;2023-02-10T11:12:50;102323.64;;;16.64;33.46
66396;BME280;53207;51.378;-1.342;2023-02-10T11:15:58;102325.12;;;16.71;33.34
66396;BME280;53207;51.378;-1.342;2023-02-10T11:18:26;102322.33;;;16.58;33.46
66396;BME280;53207;51.378;-1.342;2023-02-10T11:20:56;102321.07;;;17.17;33.32
66396;BME280;53207;51.378;-1.342;2023-02-10T11:23:25;102323.32;;;16.89;33.29
66396;BME280;53207;51.378;-1.342;2023-02-10T11:25:59;102318.24;;;16.83;33.31
66396;BME280;53207;51.378;-1.342;2023-02-10T11:28:29;102313.16;;;16.68;33.21
66396;BME280;53207;51.378;-1.342;2023-02-10T11:31:00;102310.39;;;16.71;33.39
66396;BME280;53207;51.378;-1.342;2023-02-10T11:33:29;102304.59;;;16.86;33.23
66396;BME280;53207;51.378;-1.342;2023-02-10T11:36:03;102306.88;;;16.74;33.33
66396;BME280;53207;51.378;-1.342;2023-02-10T11:38:32;102309.31;;;16.74;33.29
66396;BME280;53207;51.378;-1.342;2023-02-10T11:41:02;102306.64;;;16.54;33.24
66396;BME280;53207;51.378;-1.342;2023-02-10T11:43:31;102312.46;;;16.47;33.29
66396;BME280;53207;51.378;-1.342;2023-02-10T11:46:01;102306.67;;;16.45;33.26
66396;BME280;53207;51.378;-1.342;2023-02-10T11:48:30;102305.43;;;16.44;33.25
66396;BME280;53207;51.378;-1.342;2023-02-10T11:51:02;102300.32;;;16.61;33.29
66396;BME280;53207;51.378;-1.342;2023-02-10T11:53:32;102298.58;;;16.71;33.17
66396;BME280;53207;51.378;-1.342;2023-02-10T11:56:04;102301.09;;;16.42;33.21
66396;BME280;53207;51.378;-1.342;2023-02-10T11:58:46;102290.29;;;16.69;33.13
66396;BME280;53207;51.378;-1.342;2023-02-10T12:01:20;102287.38;;;16.68;33.13
66396;BME280;53207;51.378;-1.342;2023-02-10T12:04:00;102284.83;;;16.63;33.18
66396;BME280;53207;51.378;-1.342;2023-02-10T12:06:33;102289.35;;;16.27;33.32
66396;BME280;53207;51.378;-1.342;2023-02-10T12:09:08;102282.19;;;16.39;33.16
66396;BME280;53207;51.378;-1.342;2023-02-10T12:11:44;102280.15;;;16.73;33.03
66396;BME280;53207;51.378;-1.342;2023-02-10T12:14:28;102278.68;;;16.36;33.18
66396;BME280;53207;51.378;-1.342;2023-02-10T12:17:05;102280.29;;;16.28;33.24
66396;BME280;53207;51.378;-1.342;2023-02-10T12:19:47;102275.99;;;16.38;33.15
66396;BME280;53207;51.378;-1.342;2023-02-10T12:22:25;102272.60;;;16.55;33.16
66396;BME280;53207;51.378;-1.342;2023-02-10T12:25:04;102269.56;;;16.56;33.19
66396;BME280;53207;51.378;-1.342;2023-02-10T12:27:45;102267.85;;;16.28;33.20
66396;BME280;53207;51.378;-1.342;2023-02-10T12:30:26;102267.91;;;16.84;33.12
66396;BME280;53207;51.378;-1.342;2023-02-10T12:33:03;102259.94;;;16.49;33.19
66396;BME280;53207;51.378;-1.342;2023-02-10T12:35:45;102253.24;;;16.50;33.17
66396;BME280;53207;51.378;-1.342;2023-02-10T12:38:28;102258.87;;;16.33;33.38
66396;BME280;53207;51.378;-1.342;2023-02-10T12:41:07;102262.70;;;16.44;33.25
66396;BME280;53207;51.378;-1.342;2023-02-10T12:44:19;102254.49;;;16.35;33.33
66396;BME280;53207;51.378;-1.342;2023-02-10T12:46:56;102250.93;;;16.60;33.32
66396;BME280;53207;51.378;-1.342;2023-02-10T12:49:36;102245.94;;;16.59;33.35
66396;BME280;53207;51.378;-1.342;2023-02-10T12:52:09;102235.52;;;16.60;33.32
66396;BME280;53207;51.378;-1.342;2023-02-10T12:54:43;102234.51;;;16.51;33.42